Time;durP1;ratioP1;P1;durP2;ratioP2;P2;SDS_P1;SDS_P2;PMS_P1;PMS_P2;Temp;Humidity;BMP_temperature;BMP_pressure;BME280_temperature;BME280_humidity;BME280_pressure;Samples;Min_cycle;Max_cycle;Signal;HPM_P1;HPM_P2
2022/05/21 00:00:23;;;;;;;5.10;3.50;;;;;;;16.67;65.85;100436.88;5012984;28;20417;-63
2022/05/21 00:03:18;;;;;;;4.88;3.60;;;;;;;16.66;65.42;100433.41;5012854;28;20141;-64
2022/05/21 00:06:06;;;;;;;6.63;3.63;;;;;;;16.67;65.72;100436.88;5012783;28;20052;-63
2022/05/21 00:08:58;;;;;;;6.07;3.10;;;;;;;16.67;65.63;100431.66;5014011;28;20095;-63
2022/05/21 00:11:48;;;;;;;3.95;2.67;;;;;;;16.66;65.61;100435.19;5013172;28;20413;-65
2022/05/21 00:14:34;;;;;;;4.72;3.30;;;;;;;16.65;65.66;100436.06;5013298;28;20081;-63
2022/05/21 00:17:19;;;;;;;5.13;2.92;;;;;;;16.63;65.86;100428.19;5013384;28;20068;-62
2022/05/21 00:20:46;;;;;;;5.90;3.25;;;;;;;16.59;65.51;100439.53;5014014;28;20116;-63
2022/05/21 00:23:23;;;;;;;4.60;2.88;;;;;;;16.56;65.34;100443.03;5013253;28;20053;-63
2022/05/21 00:26:17;;;;;;;4.57;2.78;;;;;;;16.52;65.24;100438.66;5013535;28;20111;-63
2022/05/21 00:29:07;;;;;;;7.20;3.10;;;;;;;16.51;65.50;100438.69;5013098;28;20049;-63
2022/05/21 00:31:54;;;;;;;5.13;2.95;;;;;;;16.49;65.55;100436.09;5012584;28;20431;-64
2022/05/21 00:34:38;;;;;;;3.45;2.40;;;;;;;16.48;65.44;100441.31;5013755;28;20412;-63
2022/05/21 00:37:28;;;;;;;4.18;2.88;;;;;;;16.43;65.36;100443.94;5013970;28;20092;-64
2022/05/21 00:40:12;;;;;;;4.38;2.38;;;;;;;16.42;65.50;100442.19;5018047;28;20057;-63
2022/05/21 00:43:01;;;;;;;;;;;;;;;16.37;65.13;100447.44;5018013;28;20052;-63
2022/05/21 00:45:51;;;;;;;3.35;2.08;;;;;;;16.36;65.38;100450.03;5016474;28;19940;-63
2022/05/21 00:48:37;;;;;;;5.03;2.20;;;;;;;16.36;65.40;100444.81;5016957;28;20045;-63
2022/05/21 00:51:29;;;;;;;7.38;2.78;;;;;;;16.34;65.33;100444.81;5016667;28;20099;-64
2022/05/21 00:54:27;;;;;;;5.35;2.80;;;;;;;16.34;65.33;100438.72;5016544;28;20053;-62
2022/05/21 00:59:47;;;;;;;3.05;2.35;;;;;;;16.32;65.11;100440.47;5017226;28;20084;-64
2022/05/21 01:01:01;;;;;;;3.38;2.33;;;;;;;16.33;65.30;100447.44;5000487;28;20156;-63
2022/05/21 01:03:48;;;;;;;4.82;2.53;;;;;;;16.33;65.07;100442.22;5016316;28;20049;-62
2022/05/21 01:06:34;;;;;;;5.05;2.53;;;;;;;16.29;65.13;100447.44;5016941;28;20053;-63
2022/05/21 01:09:26;;;;;;;7.20;2.65;;;;;;;16.26;65.16;100443.97;5016520;28;20045;-64
2022/05/21 01:12:11;;;;;;;6.15;2.05;;;;;;;16.20;65.04;100443.97;5015982;28;20517;-63
2022/05/21 01:14:57;;;;;;;4.40;2.50;;;;;;;16.16;65.01;100434.38;5017474;28;20528;-63
2022/05/21 01:17:45;;;;;;;6.55;2.92;;;;;;;16.13;64.90;100441.34;5016377;28;20049;-63
2022/05/21 01:20:41;;;;;;;4.10;1.88;;;;;;;16.11;64.67;100440.50;5016140;28;20048;-63
2022/05/21 01:23:26;;;;;;;8.63;2.38;;;;;;;16.13;65.14;100440.47;5016014;28;20053;-63
2022/05/21 01:26:17;;;;;;;5.75;2.65;;;;;;;16.11;64.82;100440.50;5015676;28;20115;-63
2022/05/21 01:29:17;;;;;;;4.72;2.10;;;;;;;16.14;64.67;100439.63;5016287;28;20081;-63
2022/05/21 01:32:05;;;;;;;6.72;2.40;;;;;;;16.11;64.83;100443.13;5016957;28;20095;-64
2022/05/21 01:34:56;;;;;;;4.38;2.33;;;;;;;16.14;64.94;100448.31;5015584;28;20128;-64
2022/05/21 01:37:43;;;;;;;6.53;2.13;;;;;;;16.13;64.75;100440.47;5016697;28;20131;-64
2022/05/21 01:40:29;;;;;;;4.10;1.98;;;;;;;16.12;64.74;100438.75;5015890;28;20129;-63
2022/05/21 01:46:22;;;;;;;5.75;2.30;;;;;;;16.11;64.79;100430.03;5016514;28;20075;-64
2022/05/21 01:49:08;;;;;;;5.20;3.10;;;;;;;16.11;64.64;100423.94;5015672;28;20060;-63
2022/05/21 01:51:58;;;;;;;7.93;2.70;;;;;;;16.10;64.65;100422.19;5016649;28;20111;-63
2022/05/21 01:54:51;;;;;;;7.82;3.08;;;;;;;16.09;64.60;100428.28;5015555;28;20072;-64
2022/05/21 01:57:38;;;;;;;5.03;2.30;;;;;;;16.09;64.69;100421.31;5016357;28;20180;-63
2022/05/21 02:00:27;;;;;;;5.15;2.35;;;;;;;16.11;64.71;100431.78;5016273;28;20105;-64
2022/05/21 02:03:14;;;;;;;4.00;2.25;;;;;;;16.12;64.74;100425.66;5015637;28;20421;-63
2022/05/21 02:06:04;;;;;;;5.00;2.05;;;;;;;16.12;64.78;100423.91;5016035;28;20527;-63
2022/05/21 02:08:54;;;;;;;8.93;2.67;;;;;;;16.11;64.59;100431.78;5015675;28;20077;-63
2022/05/21 02:11:43;;;;;;;6.15;2.50;;;;;;;16.11;64.50;100430.03;5015349;28;20049;-63
2022/05/21 02:14:29;;;;;;;5.18;2.30;;;;;;;16.11;64.45;100427.44;5014490;28;20081;-62
2022/05/21 02:17:22;;;;;;;5.13;2.08;;;;;;;16.10;64.40;100425.69;5015689;28;20045;-63
2022/05/21 02:20:10;;;;;;;5.70;2.47;;;;;;;16.08;64.29;100430.03;5015355;28;20555;-63
2022/05/21 02:22:54;;;;;;;3.80;1.90;;;;;;;16.09;64.50;100426.56;5014680;28;20088;-63
2022/05/21 02:25:41;;;;;;;6.35;2.00;;;;;;;16.07;64.60;100428.28;5015117;28;20092;-63
2022/05/21 02:28:28;;;;;;;7.22;2.22;;;;;;;16.04;64.39;100420.44;5014385;28;20520;-64
2022/05/21 02:31:20;;;;;;;4.70;2.50;;;;;;;16.05;64.38;100421.31;5016017;28;20527;-64
2022/05/21 02:34:08;;;;;;;8.10;2.60;;;;;;;16.03;64.56;100429.16;5015014;28;20056;-63
2022/05/21 02:40:04;;;;;;;3.72;2.20;;;;;;;16.00;64.27;100421.31;5015668;28;20104;-64
2022/05/21 02:42:56;;;;;;;3.22;1.80;;;;;;;15.95;64.38;100421.31;5014304;28;20103;-63
2022/05/21 02:45:43;;;;;;;4.13;1.92;;;;;;;15.95;64.43;100426.53;5015711;28;20112;-63
2022/05/21 02:48:29;;;;;;;4.00;2.10;;;;;;;15.94;64.27;100424.81;5014707;28;20049;-62
2022/05/21 02:51:24;;;;;;;4.80;2.00;;;;;;;15.96;64.40;100420.44;5015111;28;20048;-63
2022/05/21 02:54:18;;;;;;;2.97;1.67;;;;;;;15.94;64.26;100424.81;5014340;28;20460;-64
2022/05/21 02:57:05;;;;;;;5.47;2.03;;;;;;;15.92;64.10;100428.28;5014951;28;20413;-64
2022/05/21 02:59:55;;;;;;;3.47;1.80;;;;;;;15.90;64.31;100424.81;5013530;28;20111;-62
2022/05/21 03:02:39;;;;;;;4.70;2.13;;;;;;;15.88;64.32;100419.59;5013495;28;20061;-63
2022/05/21 03:05:31;;;;;;;4.07;1.85;;;;;;;15.86;64.06;100412.59;5014629;28;20424;-63
2022/05/21 03:11:26;;;;;;;8.90;2.38;;;;;;;15.86;64.12;100420.44;5014764;28;20601;-63
2022/05/21 03:14:13;;;;;;;3.05;2.05;;;;;;;15.82;64.05;100423.00;5014691;28;20104;-63
2022/05/21 03:17:00;;;;;;;6.47;2.10;;;;;;;15.77;64.15;100427.38;5014621;28;20045;-63
2022/05/21 03:19:49;;;;;;;6.00;2.10;;;;;;;15.76;64.27;100428.25;5013766;28;20445;-63
2022/05/21 03:22:42;;;;;;;3.55;1.88;;;;;;;15.76;64.27;100423.03;5014961;28;20096;-63
2022/05/21 03:25:30;;;;;;;3.20;2.42;;;;;;;15.73;63.99;100420.41;5013492;28;20056;-63
2022/05/21 03:28:25;;;;;;;5.05;2.03;;;;;;;15.72;64.14;100436.94;5014348;28;20415;-63
2022/05/21 03:31:12;;;;;;;9.40;2.63;;;;;;;15.73;64.17;100438.69;5014568;28;20129;-64
2022/05/21 03:34:01;;;;;;;6.88;2.58;;;;;;;15.73;64.14;100433.47;5014120;28;20107;-63
2022/05/21 03:36:51;;;;;;;3.17;2.30;;;;;;;15.72;64.17;100444.78;5014422;28;20052;-63
2022/05/21 03:39:46;;;;;;;5.05;2.33;;;;;;;15.68;64.03;100437.81;5013448;28;20108;-62
2022/05/21 03:42:33;;;;;;;7.35;2.65;;;;;;;15.66;64.23;100443.06;5013702;28;20527;-64
2022/05/21 03:45:20;;;;;;;4.78;2.50;;;;;;;15.67;64.02;100442.19;5013734;28;20088;-63
2022/05/21 03:48:07;;;;;;;5.88;2.38;;;;;;;15.66;64.06;100442.16;5014187;28;20076;-63
2022/05/21 03:51:01;;;;;;;4.38;2.20;;;;;;;15.65;63.92;100445.63;5012775;28;20513;-63
2022/05/21 03:53:46;;;;;;;10.15;2.85;;;;;;;15.63;64.15;100453.50;5013406;28;20045;-63
2022/05/21 03:56:38;;;;;;;9.95;2.70;;;;;;;15.66;64.12;100460.44;5014278;28;20053;-63
2022/05/21 03:59:23;;;;;;;7.43;2.90;;;;;;;15.66;64.39;100457.84;5013618;28;20045;-63
2022/05/21 04:02:06;;;;;;;10.27;2.92;;;;;;;15.65;64.30;100458.69;5013562;28;20088;-63
2022/05/21 04:04:56;;;;;;;6.03;2.30;;;;;;;15.66;64.18;100456.13;5014164;28;20044;-63
2022/05/21 04:07:43;;;;;;;6.47;2.75;;;;;;;15.63;64.17;100461.31;5012930;28;20081;-63
2022/05/21 04:10:35;;;;;;;7.10;2.90;;;;;;;15.60;64.15;100456.09;5012938;28;20528;-63
2022/05/21 04:13:30;;;;;;;9.63;3.35;;;;;;;15.59;64.12;100453.50;5013753;28;20049;-63
2022/05/21 04:16:23;;;;;;;7.45;3.08;;;;;;;15.58;64.18;100462.19;5012485;28;20076;-63
2022/05/21 04:19:07;;;;;;;7.47;2.83;;;;;;;15.53;64.22;100460.44;5012776;28;20104;-62
2022/05/21 04:21:56;;;;;;;9.07;2.70;;;;;;;15.53;64.20;100464.81;5013920;28;20144;-63
2022/05/21 04:24:46;;;;;;;8.45;3.13;;;;;;;15.55;64.35;100470.00;5014288;28;20123;-63
2022/05/21 04:27:36;;;;;;;8.30;2.83;;;;;;;15.54;63.98;100482.22;5013709;28;20111;-64
2022/05/21 04:30:28;;;;;;;5.97;2.85;;;;;;;15.55;64.19;100480.47;5013091;28;20076;-63
2022/05/21 04:33:18;;;;;;;7.00;3.25;;;;;;;15.54;64.22;100487.44;5013706;28;20121;-63
2022/05/21 04:36:19;;;;;;;11.65;3.47;;;;;;;15.54;64.15;100484.84;5012629;28;20057;-63
2022/05/21 04:39:05;;;;;;;7.22;2.88;;;;;;;15.53;64.34;100485.69;5012903;28;20437;-64
2022/05/21 04:41:51;;;;;;;9.60;2.75;;;;;;;15.49;64.24;100484.78;5013003;28;20516;-63
2022/05/21 04:44:44;;;;;;;6.88;3.13;;;;;;;15.49;64.23;100486.53;5013732;28;20049;-63
2022/05/21 04:47:31;;;;;;;8.80;3.03;;;;;;;15.50;64.41;100483.94;5013358;28;20084;-64
2022/05/21 04:50:15;;;;;;;8.48;2.85;;;;;;;15.49;64.33;100487.41;5012506;28;20049;-63
2022/05/21 04:53:07;;;;;;;5.50;2.67;;;;;;;15.49;64.43;100483.94;5012442;28;20080;-64
2022/05/21 04:55:54;;;;;;;7.82;2.83;;;;;;;15.47;64.44;100481.34;5012559;28;20408;-63
2022/05/21 04:58:40;;;;;;;8.13;3.50;;;;;;;15.42;64.39;100483.03;5012304;28;20056;-63
2022/05/21 05:01:30;;;;;;;7.78;3.58;;;;;;;15.38;64.31;100483.91;5012824;28;20103;-66
2022/05/21 05:04:14;;;;;;;7.82;3.25;;;;;;;15.37;64.40;100480.44;5013409;28;20053;-63
2022/05/21 05:06:58;;;;;;;10.07;3.75;;;;;;;15.36;64.40;100488.25;5013190;28;20052;-63
2022/05/21 05:09:43;;;;;;;7.95;2.90;;;;;;;15.35;64.50;100487.38;5012332;28;20076;-63
2022/05/21 05:12:31;;;;;;;8.55;2.83;;;;;;;15.35;64.45;100495.22;5012356;28;20576;-63
2022/05/21 05:15:23;;;;;;;10.18;3.30;;;;;;;15.34;64.56;100492.56;5012631;28;20093;-62
2022/05/21 05:18:10;;;;;;;10.63;3.15;;;;;;;15.34;64.56;100497.81;5013573;28;20107;-63
2022/05/21 05:21:01;;;;;;;12.15;4.40;;;;;;;15.36;64.84;100493.47;5012218;28;20048;-63
2022/05/21 05:23:55;;;;;;;9.13;3.80;;;;;;;15.36;64.67;100490.84;5014094;28;20044;-64
2022/05/21 05:26:39;;;;;;;6.53;3.25;;;;;;;15.41;64.86;100501.34;5016189;28;20049;-63
2022/05/21 05:29:25;;;;;;;11.43;3.30;;;;;;;15.38;64.74;100491.72;5017126;28;20084;-63
2022/05/21 05:32:14;;;;;;;11.35;4.28;;;;;;;15.38;64.72;100494.34;5016038;28;20108;-64
2022/05/21 05:35:04;;;;;;;12.25;3.75;;;;;;;15.37;64.85;100506.53;5015662;28;20065;-63
2022/05/21 05:37:53;;;;;;;8.25;3.80;;;;;;;15.32;64.79;100503.03;5016095;28;20057;-63
2022/05/21 05:40:45;;;;;;;10.38;4.20;;;;;;;15.32;64.79;100495.19;5015673;28;20049;-63
2022/05/21 05:43:31;;;;;;;11.23;3.58;;;;;;;15.32;64.75;100497.81;5016439;28;20413;-63
2022/05/21 05:46:15;;;;;;;8.75;3.75;;;;;;;15.31;64.78;100500.44;5016673;28;20048;-63
2022/05/21 05:49:05;;;;;;;11.07;4.18;;;;;;;15.31;64.83;100508.25;5016400;28;20057;-63
2022/05/21 05:51:55;;;;;;;10.82;4.18;;;;;;;15.31;65.04;100506.50;5015793;28;20581;-62
2022/05/21 05:54:39;;;;;;;8.25;4.25;;;;;;;15.34;65.06;100513.47;5016545;28;20544;-63
2022/05/21 05:57:23;;;;;;;8.27;3.90;;;;;;;15.35;64.84;100516.09;5016124;28;20064;-63
2022/05/21 06:00:10;;;;;;;11.45;3.92;;;;;;;15.34;64.96;100514.34;5016082;28;20092;-64
2022/05/21 06:03:01;;;;;;;12.68;4.28;;;;;;;15.34;65.08;100506.53;5015902;28;20141;-63
2022/05/21 06:05:54;;;;;;;9.40;4.15;;;;;;;15.34;64.97;100509.13;5015884;28;20044;-63
2022/05/21 06:08:44;;;;;;;16.20;4.72;;;;;;;15.35;65.06;100512.59;5015927;28;20052;-62
2022/05/21 06:11:37;;;;;;;10.90;4.50;;;;;;;15.34;65.13;100508.25;5015275;28;20060;-62
2022/05/21 06:14:27;;;;;;;13.02;4.47;;;;;;;15.31;65.16;100505.66;5015985;28;20048;-63
2022/05/21 06:17:17;;;;;;;7.55;3.70;;;;;;;15.30;65.06;100512.59;5015100;28;20053;-62
2022/05/21 06:20:08;;;;;;;9.57;4.30;;;;;;;15.32;65.20;100512.63;5015063;28;20048;-64
2022/05/21 06:22:54;;;;;;;11.38;4.32;;;;;;;15.31;65.02;100522.19;5015160;28;20073;-64
2022/05/21 06:25:38;;;;;;;14.63;4.47;;;;;;;15.35;65.11;100525.66;5015175;28;20397;-62
2022/05/21 06:28:22;;;;;;;8.25;3.85;;;;;;;15.35;65.31;100523.06;5015826;28;20045;-63
2022/05/21 06:31:11;;;;;;;11.75;3.70;;;;;;;15.37;65.39;100521.31;5015297;28;20563;-64
2022/05/21 06:33:58;;;;;;;12.65;4.80;;;;;;;15.37;65.33;100532.66;5015588;28;20057;-63
2022/05/21 06:36:48;;;;;;;9.77;3.95;;;;;;;15.37;65.29;100535.28;5013755;28;20053;-63
2022/05/21 06:39:40;;;;;;;12.35;4.25;;;;;;;15.36;65.27;100535.25;5014969;28;20532;-64
2022/05/21 06:42:29;;;;;;;11.48;4.70;;;;;;;15.37;65.35;100537.88;5015376;28;20524;-63
2022/05/21 06:45:22;;;;;;;9.63;4.18;;;;;;;15.38;65.29;100536.13;5014646;28;20076;-63
2022/05/21 06:48:10;;;;;;;12.40;4.30;;;;;;;15.40;65.55;100547.47;5014089;28;20092;-63
2022/05/21 06:50:54;;;;;;;13.20;4.93;;;;;;;15.37;65.35;100540.50;5014718;28;20192;-63
2022/05/21 06:53:40;;;;;;;12.48;4.53;;;;;;;15.38;65.52;100549.19;5014570;28;20045;-63
2022/05/21 06:56:24;;;;;;;10.13;4.05;;;;;;;15.40;65.62;100546.59;5013946;28;20084;-63
2022/05/21 06:59:17;;;;;;;10.07;4.05;;;;;;;15.40;65.61;100552.69;5014122;28;20563;-63
2022/05/21 07:02:09;;;;;;;9.95;4.03;;;;;;;15.42;65.63;100558.78;5015013;28;20065;-62
2022/05/21 07:08:05;;;;;;;13.48;3.65;;;;;;;15.41;65.27;100549.19;5014789;28;20057;-63
2022/05/21 07:10:57;;;;;;;12.18;4.55;;;;;;;15.42;65.49;100558.78;5015051;28;20049;-63
2022/05/21 07:13:43;;;;;;;12.35;4.68;;;;;;;15.40;65.58;100557.03;5013807;28;20100;-62
2022/05/21 07:16:32;;;;;;;10.75;4.50;;;;;;;15.39;65.74;100558.75;5014104;28;20088;-63
2022/05/21 07:19:19;;;;;;;10.70;4.45;;;;;;;15.40;65.85;100547.47;5013483;28;20060;-63
2022/05/21 07:22:09;;;;;;;10.40;3.83;;;;;;;15.41;65.58;100546.59;5014585;28;20088;-62
2022/05/21 07:24:59;;;;;;;13.68;3.78;;;;;;;15.40;65.56;100547.47;5014684;28;20534;-63
2022/05/21 07:27:48;;;;;;;10.68;4.10;;;;;;;15.39;65.63;100543.09;5014733;28;20603;-63
2022/05/21 07:30:34;;;;;;;11.93;5.07;;;;;;;15.39;65.84;100550.94;5014015;28;20573;-63
2022/05/21 07:33:27;;;;;;;13.25;4.28;;;;;;;15.38;65.64;100552.69;5014652;28;20103;-63
2022/05/21 07:36:13;;;;;;;16.08;4.03;;;;;;;15.40;65.76;100560.50;5014433;28;20044;-63
2022/05/21 07:38:57;;;;;;;11.63;4.10;;;;;;;15.40;65.58;100555.28;5014142;28;20500;-63
2022/05/21 07:41:47;;;;;;;14.38;4.50;;;;;;;15.41;65.58;100557.03;5014270;28;20048;-65
2022/05/21 07:44:34;;;;;;;13.40;4.07;;;;;;;15.39;65.49;100564.00;5014374;28;20405;-62
2022/05/21 07:47:26;;;;;;;15.10;5.45;;;;;;;15.38;65.56;100557.91;5014152;28;20119;-65
2022/05/21 07:50:14;;;;;;;11.10;3.95;;;;;;;15.39;65.66;100550.94;5013977;28;20076;-64
2022/05/21 07:53:01;;;;;;;12.88;4.20;;;;;;;15.41;65.66;100558.78;5014545;28;20076;-63
2022/05/21 07:55:52;;;;;;;12.70;4.18;;;;;;;15.40;65.52;100560.50;5013900;28;20064;-63
2022/05/21 07:58:39;;;;;;;15.23;4.82;;;;;;;15.42;65.67;100557.91;5012889;28;20263;-63
2022/05/21 08:01:25;;;;;;;9.90;3.58;;;;;;;15.40;65.54;100565.75;5012745;28;20049;-63
2022/05/21 08:04:17;;;;;;;15.65;4.32;;;;;;;15.41;65.78;100579.69;5013260;28;20096;-63
2022/05/21 08:07:09;;;;;;;15.88;4.70;;;;;;;15.38;65.73;100570.97;5012799;28;20119;-64
2022/05/21 08:09:58;;;;;;;11.55;3.63;;;;;;;15.40;65.72;100578.78;5012768;28;20469;-63
2022/05/21 08:12:48;;;;;;;14.00;4.57;;;;;;;15.40;65.73;100573.56;5013112;28;20045;-64
2022/05/21 08:15:36;;;;;;;10.00;4.00;;;;;;;15.40;65.62;100572.72;5012864;28;20057;-63
2022/05/21 08:18:29;;;;;;;9.23;3.80;;;;;;;15.40;65.58;100576.19;5013670;28;20198;-63
2022/05/21 08:21:13;;;;;;;11.10;4.05;;;;;;;15.41;65.51;100575.31;5012748;28;20060;-65
2022/05/21 08:27:06;;;;;;;9.45;4.25;;;;;;;15.38;65.60;100573.56;5013576;28;20092;-63
2022/05/21 08:29:59;;;;;;;8.95;3.58;;;;;;;15.41;65.51;100577.06;5012801;28;20056;-64
2022/05/21 08:32:43;;;;;;;8.38;4.07;;;;;;;15.42;65.60;100569.22;5012545;28;20048;-65
2022/05/21 08:35:30;;;;;;;10.52;3.65;;;;;;;15.45;65.68;100587.53;5012862;28;20075;-64
2022/05/21 08:38:17;;;;;;;11.55;3.58;;;;;;;15.46;65.67;100571.00;5012799;28;20085;-62
2022/05/21 08:41:11;;;;;;;15.43;4.78;;;;;;;15.47;65.89;100571.88;5012912;28;20061;-63
2022/05/21 08:44:03;;;;;;;10.10;4.63;;;;;;;15.48;65.65;100573.59;5013406;28;20417;-63
2022/05/21 08:47:01;;;;;;;13.77;4.40;;;;;;;15.51;65.81;100578.84;5012607;28;20053;-63
2022/05/21 08:49:55;;;;;;;9.38;4.13;;;;;;;15.53;65.67;100577.97;5012862;28;20069;-63
2022/05/21 08:52:57;;;;;;;9.05;4.90;;;;;;;15.50;65.64;100575.34;5013571;28;20060;-62
2022/05/21 08:55:54;;;;;;;13.02;4.60;;;;;;;15.52;65.25;100578.00;5013097;28;20111;-63
2022/05/21 08:59:08;;;;;;;7.90;5.10;;;;;;;15.51;65.53;100579.72;5014552;28;20052;-63
2022/05/21 09:02:00;;;;;;;8.85;4.90;;;;;;;15.56;65.55;100578.88;5017458;28;20108;-63
2022/05/21 09:04:47;;;;;;;11.90;5.07;;;;;;;15.59;65.64;100586.72;5017221;28;20119;-63
2022/05/21 09:07:44;;;;;;;9.25;4.65;;;;;;;15.61;65.65;100585.00;5017313;28;20444;-63
2022/05/21 09:10:34;;;;;;;8.82;4.15;;;;;;;15.62;65.45;100578.91;5016086;28;20052;-64
2022/05/21 09:13:41;;;;;;;12.80;4.70;;;;;;;15.61;65.44;100578.00;5017447;28;20053;-63
2022/05/21 09:16:56;;;;;;;13.15;5.00;;;;;;;15.63;65.36;100570.19;5017065;28;20587;-63
2022/05/21 09:19:57;;;;;;;14.20;5.05;;;;;;;15.64;65.49;100571.94;5016619;28;20053;-62
2022/05/21 09:22:54;;;;;;;12.23;4.43;;;;;;;15.67;65.37;100575.44;5016863;28;20045;-64
2022/05/21 09:25:38;;;;;;;9.93;4.70;;;;;;;15.68;65.40;100566.72;5016905;28;20111;-62
2022/05/21 09:28:22;;;;;;;8.98;4.93;;;;;;;15.70;65.54;100555.41;5016770;28;20037;-63
2022/05/21 09:31:09;;;;;;;;;;;;;;;15.71;65.33;100563.25;5017317;28;20080;-63
2022/05/21 09:34:11;;;;;;;12.02;4.43;;;;;;;15.72;65.36;100569.34;5016203;28;19920;-63
2022/05/21 09:36:58;;;;;;;10.75;4.53;;;;;;;15.71;65.45;100573.69;5015729;28;20076;-63
2022/05/21 09:39:44;;;;;;;11.38;4.57;;;;;;;15.71;65.29;100572.84;5016011;28;20100;-62
2022/05/21 09:45:42;;;;;;;11.00;4.07;;;;;;;15.71;65.17;100567.63;5016175;28;20048;-64
2022/05/21 09:48:32;;;;;;;9.75;3.90;;;;;;;15.73;65.07;100574.56;5015603;28;20453;-63
2022/05/21 09:51:29;;;;;;;7.93;4.20;;;;;;;15.74;65.12;100573.72;5015632;28;20052;-64
2022/05/21 09:54:27;;;;;;;8.55;4.15;;;;;;;15.76;65.25;100569.38;5015770;28;20108;-64
2022/05/21 09:57:29;;;;;;;10.50;3.90;;;;;;;15.78;64.80;100575.47;5015322;28;20135;-63
2022/05/21 10:00:24;;;;;;;12.07;4.22;;;;;;;15.78;65.12;100579.81;5016328;28;20085;-63
2022/05/21 10:03:10;;;;;;;12.77;4.07;;;;;;;15.84;65.07;100574.63;5014918;28;20084;-63
2022/05/21 10:06:02;;;;;;;6.78;4.32;;;;;;;15.85;65.01;100571.16;5015776;28;20100;-63
2022/05/21 10:12:19;;;;;;;6.93;3.75;;;;;;;15.91;65.05;100570.31;5016254;28;20096;-62
2022/05/21 10:15:26;;;;;;;8.88;4.18;;;;;;;15.92;65.04;100572.06;5015383;28;20048;-63
2022/05/21 10:18:19;;;;;;;10.43;3.85;;;;;;;15.93;64.69;100574.66;5015169;28;20125;-64
2022/05/21 10:21:31;;;;;;;5.78;3.08;;;;;;;15.96;64.66;100564.22;5014886;28;20114;-63
2022/05/21 10:25:03;;;;;;;8.13;4.13;;;;;;;16.01;64.66;100560.75;5014069;28;20061;-63
2022/05/21 10:28:24;;;;;;;8.82;3.83;;;;;;;15.99;64.78;100560.72;5015345;28;20472;-63
2022/05/21 10:31:38;;;;;;;7.97;3.00;;;;;;;16.01;64.79;100566.84;5015439;28;20519;-62
2022/05/21 10:34:33;;;;;;;13.73;4.05;;;;;;;16.03;64.76;100565.09;5015461;28;20057;-63
2022/05/21 10:37:53;;;;;;;7.20;3.47;;;;;;;16.04;64.79;100571.22;5014603;28;20060;-63
2022/05/21 10:40:43;;;;;;;5.78;2.65;;;;;;;16.06;64.53;100565.09;5014135;28;20262;-63
2022/05/21 10:43:45;;;;;;;9.90;3.30;;;;;;;16.09;64.41;100570.34;5014525;28;20053;-63
2022/05/21 10:46:38;;;;;;;8.40;3.22;;;;;;;16.06;64.65;100565.09;5014288;28;20520;-63
2022/05/21 10:49:27;;;;;;;6.80;2.88;;;;;;;16.05;64.83;100570.31;5015592;28;20125;-62
2022/05/21 10:52:20;;;;;;;7.78;2.97;;;;;;;16.05;64.39;100578.16;5015487;28;20136;-63
2022/05/21 10:55:20;;;;;;;8.40;3.15;;;;;;;16.03;64.58;100572.09;5015324;28;20076;-64
2022/05/21 10:58:17;;;;;;;8.85;3.35;;;;;;;16.03;64.40;100572.09;5014253;28;20092;-63
2022/05/21 11:01:32;;;;;;;6.18;2.53;;;;;;;16.06;64.43;100565.09;5015481;28;20045;-63
2022/05/21 11:04:29;;;;;;;7.10;2.83;;;;;;;16.07;64.25;100569.47;5015087;28;20528;-62
2022/05/21 11:07:42;;;;;;;8.07;2.85;;;;;;;16.07;64.25;100572.09;5014814;28;20049;-63
2022/05/21 11:10:51;;;;;;;8.45;2.63;;;;;;;16.07;64.11;100568.59;5015045;28;20068;-63
2022/05/21 11:14:26;;;;;;;6.20;2.90;;;;;;;16.09;64.20;100570.34;5015015;28;20100;-64
2022/05/21 11:17:32;;;;;;;5.68;2.53;;;;;;;16.11;64.37;100554.66;4941095;29;20058;-64
2022/05/21 11:20:24;;;;;;;8.55;2.38;;;;;;;16.11;64.01;100568.63;5014147;28;20519;-64
2022/05/21 11:23:29;;;;;;;6.57;2.50;;;;;;;16.11;64.17;100566.00;5014590;28;20532;-63
2022/05/21 11:26:38;;;;;;;7.00;2.50;;;;;;;16.11;64.26;100557.28;5014103;28;20048;-63
2022/05/21 11:29:31;;;;;;;5.90;2.50;;;;;;;16.11;64.18;100557.28;5014031;28;20099;-63
2022/05/21 11:38:52;;;;;;;7.22;2.53;;;;;;;16.16;64.01;100542.47;5014332;28;20052;-63
2022/05/21 11:42:07;;;;;;;6.72;2.15;;;;;;;16.20;63.93;100548.56;5013854;28;20405;-63
2022/05/21 11:45:13;;;;;;;5.97;1.95;;;;;;;16.21;63.85;100547.69;5014451;28;20570;-63
2022/05/21 11:48:22;;;;;;;7.35;2.65;;;;;;;16.20;63.71;100544.19;5013219;28;20056;-62
2022/05/21 11:51:19;;;;;;;6.43;2.40;;;;;;;16.21;63.73;100547.69;5013422;28;20125;-64
2022/05/21 11:54:10;;;;;;;6.20;2.10;;;;;;;16.22;63.51;100555.53;5013537;28;20048;-63
2022/05/21 11:57:04;;;;;;;5.00;2.40;;;;;;;16.26;63.54;100557.28;5013292;28;20184;-64
2022/05/21 11:59:53;;;;;;;8.82;2.53;;;;;;;16.28;63.40;100558.16;5013522;28;20065;-63
2022/05/21 12:03:00;;;;;;;6.80;2.47;;;;;;;16.28;63.35;100566.00;5013820;28;20068;-64
2022/05/21 12:05:56;;;;;;;7.22;2.20;;;;;;;16.29;62.93;100554.69;5013152;28;20072;-63
2022/05/21 12:08:48;;;;;;;3.60;1.77;;;;;;;16.31;62.89;100559.03;5013764;28;20069;-63
2022/05/21 12:11:39;;;;;;;3.80;1.67;;;;;;;16.33;63.06;100550.31;5013424;28;20104;-64
2022/05/21 12:14:28;;;;;;;11.98;2.80;;;;;;;16.36;62.82;100557.28;5014248;28;20078;-64
2022/05/21 12:17:55;;;;;;;5.80;2.20;;;;;;;16.34;62.85;100544.22;5013728;28;20052;-63
2022/05/21 12:20:51;;;;;;;3.97;1.60;;;;;;;16.34;62.79;100548.59;5013502;28;20049;-63
2022/05/21 12:23:38;;;;;;;7.95;2.33;;;;;;;16.36;62.69;100544.19;5013232;28;20112;-64
2022/05/21 12:26:30;;;;;;;4.72;2.20;;;;;;;16.36;62.62;100534.63;5012940;28;20092;-63
2022/05/21 12:29:28;;;;;;;6.00;2.17;;;;;;;16.36;62.27;100536.34;5012586;28;20053;-64
2022/05/21 12:32:23;;;;;;;9.50;2.25;;;;;;;16.36;62.22;100531.13;5012837;28;20057;-63
2022/05/21 12:35:21;;;;;;;5.43;2.17;;;;;;;16.33;62.09;100526.78;5013126;28;20100;-63
2022/05/21 12:38:30;;;;;;;7.20;2.00;;;;;;;16.36;62.26;100537.25;5012682;28;20052;-63
2022/05/21 12:41:29;;;;;;;5.57;2.42;;;;;;;16.38;62.12;100518.91;5013609;28;20528;-64
2022/05/21 12:44:34;;;;;;;7.28;2.88;;;;;;;16.40;62.17;100525.03;5013173;28;20563;-63
2022/05/21 12:47:32;;;;;;;4.93;1.95;;;;;;;16.40;62.13;100519.78;5012845;28;20172;-63
2022/05/21 12:50:24;;;;;;;6.68;2.78;;;;;;;16.44;62.05;100508.47;5012915;28;20049;-62
2022/05/21 12:53:14;;;;;;;5.88;2.38;;;;;;;16.48;62.00;100520.69;5013631;28;20053;-64
2022/05/21 12:56:27;;;;;;;7.95;2.55;;;;;;;16.51;62.09;100517.19;5013390;28;20084;-63
2022/05/21 12:59:27;;;;;;;6.68;2.72;;;;;;;16.51;61.88;100519.78;5013047;28;20413;-63
2022/05/21 13:02:15;;;;;;;5.70;2.17;;;;;;;16.52;61.90;100518.91;5013311;28;20115;-62
2022/05/21 13:05:03;;;;;;;7.25;2.45;;;;;;;16.53;61.81;100518.06;5012506;28;20464;-64
2022/05/21 13:07:51;;;;;;;9.38;2.30;;;;;;;16.52;61.62;100526.78;5013320;28;20137;-63
2022/05/21 13:10:55;;;;;;;6.28;2.47;;;;;;;16.52;61.67;100511.94;5012336;28;20045;-63
2022/05/21 13:13:54;;;;;;;5.20;2.53;;;;;;;16.52;61.68;100514.53;5013510;28;20053;-62
2022/05/21 13:16:54;;;;;;;10.02;2.45;;;;;;;16.51;61.61;100510.19;5012231;28;20044;-64
2022/05/21 13:20:08;;;;;;;4.55;2.53;;;;;;;16.52;61.46;100511.06;5012221;28;20149;-62
2022/05/21 13:23:12;;;;;;;13.48;3.25;;;;;;;16.53;61.74;100495.34;5012133;28;20501;-63
2022/05/21 13:25:59;;;;;;;3.28;2.03;;;;;;;16.56;61.72;100486.66;5012614;28;20048;-63
2022/05/21 13:28:46;;;;;;;9.35;2.38;;;;;;;16.58;61.45;100485.78;5012719;28;20045;-63
2022/05/21 13:31:33;;;;;;;11.82;2.95;;;;;;;16.63;61.47;100487.50;5012796;28;20406;-63
2022/05/21 13:34:34;;;;;;;10.75;2.70;;;;;;;16.64;61.17;100484.88;5013157;28;20077;-64
2022/05/21 13:37:34;;;;;;;6.45;2.35;;;;;;;16.63;61.28;100483.13;5013494;28;20120;-63
2022/05/21 13:40:30;;;;;;;5.47;2.20;;;;;;;16.62;60.97;100473.53;5012675;28;20056;-63
2022/05/21 13:43:18;;;;;;;4.03;1.88;;;;;;;16.65;61.12;100472.69;5012897;28;20103;-63
2022/05/21 13:46:05;;;;;;;7.13;2.53;;;;;;;16.65;61.10;100470.94;5015267;28;20045;-63
2022/05/21 13:48:55;;;;;;;7.97;2.33;;;;;;;16.65;60.93;100465.69;5015089;28;20575;-64